Au Sable Forks, New York
Current Conditions -  °F | °C
As of 6:53 PM on Sunday 21 Dec 2014 (Local Time) from KPBG Reporting Station
Haze Haze  
Wind Chill: 21°   Ceiling: 1100
Heat Index: 21°   Visibility: 5mi
Dew Point: 18°   Wind: 3mph
Humidity: 88%   Direction: 330°NNW
Pressure: 30.38"   Gusts: NA
Location:  44.44°N, 73.67°W
Report Text: KPBG 212353Z AUTO 33003KT 5SM BR OVC011 M06/M08 A3038 RMK AO2 SLP293 T10611078 11050 21067 53008
Loading
Personal Weather Stations






























Interactive Weather Map New forecast layout! Learn more

10-Day Weather Forecast

Advertisements
Track Severe Weather on mobile